Time;durP1;ratioP1;P1;durP2;ratioP2;P2;SDS_P1;SDS_P2;PMS_P1;PMS_P2;Temp;Humidity;BMP_temperature;BMP_pressure;BME280_temperature;BME280_humidity;BME280_pressure;Samples;Min_cycle;Max_cycle;Signal;HPM_P1;HPM_P2
2022/05/04 00:01:17;;;;;;;29.63;10.85;;;;;;;8.67;73.64;101896.69;5043357;28;20101;-65
2022/05/04 00:03:43;;;;;;;23.55;9.82;;;;;;;8.70;74.09;101898.19;5042015;28;20025;-65
2022/05/04 00:06:09;;;;;;;21.02;9.27;;;;;;;8.72;75.17;101894.22;5043478;28;20037;-65
2022/05/04 00:08:35;;;;;;;22.75;10.77;;;;;;;8.69;75.10;101897.34;5044444;28;20036;-65
2022/05/04 00:11:01;;;;;;;23.45;9.77;;;;;;;8.70;75.53;101893.53;5043701;28;20037;-66
2022/05/04 00:13:27;;;;;;;25.05;10.02;;;;;;;8.70;75.00;101889.97;5044452;28;20035;-65
2022/05/04 00:15:53;;;;;;;23.67;10.05;;;;;;;8.72;73.98;101896.13;5042331;28;20048;-65
2022/05/04 00:18:18;;;;;;;22.45;9.23;;;;;;;8.74;73.95;101891.28;5043851;28;20051;-65
2022/05/04 00:20:43;;;;;;;18.77;8.68;;;;;;;8.76;73.44;101894.66;5025776;28;20119;-65
2022/05/04 00:23:08;;;;;;;23.13;9.75;;;;;;;8.81;73.20;101901.25;5045085;28;20056;-65
2022/05/04 00:25:34;;;;;;;21.27;10.00;;;;;;;8.86;73.47;101899.84;5043284;28;20392;-65
2022/05/04 00:28:00;;;;;;;25.23;9.82;;;;;;;8.93;72.72;101898.88;5042972;28;20048;-65
2022/05/04 00:30:26;;;;;;;18.98;8.70;;;;;;;8.93;72.46;101898.88;5044364;28;20041;-65
2022/05/04 00:32:51;;;;;;;22.80;8.95;;;;;;;8.95;73.20;101891.31;5044350;28;20029;-66
2022/05/04 00:35:16;;;;;;;23.58;9.20;;;;;;;8.93;72.92;101898.03;5043860;28;20045;-65
2022/05/04 00:37:41;;;;;;;24.10;9.05;;;;;;;8.93;74.36;101898.03;5044558;28;20074;-65
2022/05/04 00:40:07;;;;;;;21.85;8.93;;;;;;;8.92;74.19;101896.31;5041519;28;20059;-65
2022/05/04 00:42:33;;;;;;;23.55;9.93;;;;;;;8.89;74.62;101896.72;5040625;28;20031;-65
2022/05/04 00:44:58;;;;;;;22.02;9.02;;;;;;;8.88;75.14;101901.34;5043793;28;20508;-66
2022/05/04 00:47:23;;;;;;;20.90;9.80;;;;;;;8.89;74.73;101903.03;5043286;28;20032;-65
2022/05/04 00:49:49;;;;;;;22.42;9.35;;;;;;;8.86;74.35;101903.41;5043528;28;20021;-65
2022/05/04 00:52:15;;;;;;;23.67;10.45;;;;;;;8.86;75.70;101900.69;5042951;28;20372;-65
2022/05/04 00:54:43;;;;;;;22.23;10.02;;;;;;;8.80;74.99;101898.72;5043826;28;20021;-66
2022/05/04 00:57:11;;;;;;;24.13;10.45;;;;;;;8.83;75.40;101899.19;5029330;28;20029;-64
2022/05/04 00:59:37;;;;;;;;;;;;;;;8.99;73.92;101894.50;5043162;28;20059;-65
2022/05/04 01:02:03;;;;;;;23.05;10.75;;;;;;;8.87;74.50;101893.31;5044188;28;20314;-65
2022/05/04 01:04:29;;;;;;;22.92;10.02;;;;;;;8.84;74.82;101892.66;5037615;28;20029;-65
2022/05/04 01:06:56;;;;;;;24.27;10.52;;;;;;;8.83;74.20;101884.66;5039011;28;20048;-65
2022/05/04 01:09:21;;;;;;;26.60;9.90;;;;;;;8.83;74.38;101888.22;5042634;28;20107;-65
2022/05/04 01:11:47;;;;;;;24.50;10.50;;;;;;;8.82;74.73;101886.53;5042189;28;20171;-65
2022/05/04 01:14:14;;;;;;;26.33;9.77;;;;;;;8.87;73.56;101893.31;5042641;28;20075;-65
2022/05/04 01:16:42;;;;;;;22.05;9.68;;;;;;;8.90;73.15;101887.44;5042137;28;20036;-65
2022/05/04 01:19:09;;;;;;;20.75;10.27;;;;;;;8.92;73.85;101888.97;5042422;28;20029;-65
2022/05/04 01:21:35;;;;;;;21.95;9.77;;;;;;;8.97;73.40;101885.63;5041774;28;20039;-65
2022/05/04 01:24:00;;;;;;;21.10;9.40;;;;;;;8.95;73.10;101890.44;5042309;28;20025;-65
2022/05/04 01:26:26;;;;;;;28.27;9.20;;;;;;;8.96;72.85;101889.41;5042107;28;20040;-65
2022/05/04 01:28:51;;;;;;;24.48;9.18;;;;;;;8.93;72.66;101892.56;5043781;28;20132;-65
2022/05/04 01:31:17;;;;;;;20.83;9.25;;;;;;;8.95;72.87;101887.72;5042500;28;20383;-65
2022/05/04 01:33:42;;;;;;;26.17;9.32;;;;;;;8.94;73.06;101894.25;5040450;28;22527;-66
2022/05/04 01:36:08;;;;;;;22.02;9.20;;;;;;;8.94;73.18;101889.59;5034429;28;20038;-65
2022/05/04 01:38:34;;;;;;;20.75;9.25;;;;;;;8.95;73.58;101887.72;5040529;28;20130;-65
2022/05/04 01:40:59;;;;;;;25.42;9.25;;;;;;;8.94;73.83;101888.75;5041793;28;20852;-65
2022/05/04 01:43:25;;;;;;;23.33;9.10;;;;;;;8.93;73.17;101879.69;5042606;28;20102;-65
2022/05/04 01:45:50;;;;;;;25.50;9.38;;;;;;;8.92;73.16;101886.22;5041692;28;20107;-66
2022/05/04 01:48:15;;;;;;;19.85;9.25;;;;;;;8.94;73.60;101883.28;5043111;28;20090;-65
2022/05/04 01:50:41;;;;;;;26.60;9.18;;;;;;;8.90;72.69;101882.81;5042286;28;20059;-65
2022/05/04 01:53:06;;;;;;;19.98;9.35;;;;;;;8.87;73.19;101877.75;5040633;28;20032;-66
2022/05/04 01:55:33;;;;;;;25.42;9.07;;;;;;;8.86;73.30;101888.88;5041547;28;20028;-65
2022/05/04 01:57:58;;;;;;;21.80;9.95;;;;;;;8.78;72.94;101882.47;5042970;28;20025;-65
2022/05/04 02:00:23;;;;;;;26.20;9.25;;;;;;;8.80;73.46;101877.66;5041224;28;20221;-66
2022/05/04 02:02:49;;;;;;;20.77;9.25;;;;;;;8.79;73.15;101875.97;5040127;28;20122;-65
2022/05/04 02:05:16;;;;;;;23.17;8.93;;;;;;;8.78;73.33;101882.47;5038296;28;20059;-66
2022/05/04 02:07:43;;;;;;;23.98;9.18;;;;;;;8.81;72.70;101889.44;5043127;28;20044;-66
2022/05/04 02:10:09;;;;;;;20.92;8.80;;;;;;;8.82;72.88;101885.69;5042190;28;20053;-66
2022/05/04 02:12:35;;;;;;;22.20;8.82;;;;;;;8.82;72.77;101889.28;5043864;28;20136;-66
2022/05/04 02:15:01;;;;;;;26.27;9.43;;;;;;;8.81;72.05;101883.97;5040269;28;20108;-66
2022/05/04 02:17:26;;;;;;;23.00;8.68;;;;;;;8.79;71.80;101881.44;5041214;28;20384;-65
2022/05/04 02:19:51;;;;;;;17.42;8.30;;;;;;;8.77;72.31;101877.22;5041943;28;20064;-66
2022/05/04 02:22:18;;;;;;;20.55;8.15;;;;;;;8.76;72.43;101879.06;5039343;28;20705;-65
2022/05/04 02:24:43;;;;;;;28.98;10.07;;;;;;;8.76;72.67;101873.59;5042338;28;20029;-65
2022/05/04 02:27:08;;;;;;;22.95;8.88;;;;;;;8.69;72.68;101869.09;5043032;28;20025;-65
2022/05/04 02:29:33;;;;;;;17.13;8.27;;;;;;;8.67;73.40;101871.16;5041845;28;20029;-65
2022/05/04 02:32:00;;;;;;;18.52;8.93;;;;;;;8.60;72.97;101871.09;5042877;28;20043;-65
2022/05/04 02:34:25;;;;;;;23.55;9.00;;;;;;;8.55;72.96;101873.56;5042553;28;20040;-65
2022/05/04 02:39:34;;;;;;;21.30;8.75;;;;;;;8.48;72.89;101870.75;5042058;28;20506;-65
2022/05/04 02:41:59;;;;;;;21.70;9.23;;;;;;;8.51;71.93;101872.25;5042364;28;20033;-66
2022/05/04 02:44:25;;;;;;;21.48;8.55;;;;;;;8.50;71.81;101870.56;5042634;28;20048;-66
2022/05/04 02:46:50;;;;;;;18.98;9.43;;;;;;;8.48;71.93;101873.50;5022479;28;20021;-65
2022/05/04 02:49:16;;;;;;;27.38;8.13;;;;;;;8.45;72.11;101862.91;5041376;28;20036;-65
2022/05/04 02:51:41;;;;;;;20.45;8.77;;;;;;;8.46;71.94;101858.28;5041742;28;20112;-65
2022/05/04 02:54:06;;;;;;;20.63;8.63;;;;;;;8.46;71.36;101866.50;5042640;28;20104;-66
2022/05/04 02:56:32;;;;;;;21.67;8.43;;;;;;;8.46;71.91;101861.88;5040500;28;20033;-65
2022/05/04 02:58:57;;;;;;;27.38;8.32;;;;;;;8.45;71.47;101862.91;5041527;28;20480;-66
2022/05/04 03:04:07;;;;;;;20.10;8.38;;;;;;;8.45;71.06;101859.31;5023247;28;20068;-65
2022/05/04 03:06:34;;;;;;;19.80;9.90;;;;;;;8.41;72.45;101855.28;5034691;28;20033;-65
2022/05/04 03:08:59;;;;;;;23.80;8.30;;;;;;;8.42;72.22;101857.84;5042445;28;20706;-66
2022/05/04 03:14:09;;;;;;;22.02;7.63;;;;;;;8.42;71.92;101848.78;5042250;28;20083;-65
2022/05/04 03:16:35;;;;;;;21.85;7.85;;;;;;;8.42;72.06;101851.53;5044111;28;20048;-65
2022/05/04 03:19:02;;;;;;;20.73;7.50;;;;;;;8.39;72.51;101849.16;5046125;28;20028;-66
2022/05/04 03:21:27;;;;;;;21.38;8.00;;;;;;;8.36;72.27;101844.91;5043195;28;20116;-65
2022/05/04 03:23:52;;;;;;;20.70;8.02;;;;;;;8.33;72.89;101851.59;5044443;28;20502;-65
2022/05/04 03:26:18;;;;;;;18.85;7.78;;;;;;;8.26;73.08;101850.66;5044558;28;20025;-65
2022/05/04 03:28:44;;;;;;;23.48;8.40;;;;;;;8.18;74.11;101848.03;5044528;28;20028;-65
2022/05/04 03:31:09;;;;;;;26.30;8.35;;;;;;;8.16;74.14;101852.84;5044268;28;20051;-65
2022/05/04 03:33:35;;;;;;;23.50;8.32;;;;;;;8.14;74.43;101857.63;5046189;28;20017;-65
2022/05/04 03:36:00;;;;;;;19.33;7.70;;;;;;;8.09;73.69;101851.88;5044172;28;20080;-65
2022/05/04 03:38:25;;;;;;;22.95;8.48;;;;;;;8.09;74.24;101846.41;5043861;28;20058;-66
2022/05/04 03:40:50;;;;;;;25.50;8.40;;;;;;;8.06;74.41;101846.81;5044227;28;20025;-65
2022/05/04 03:43:16;;;;;;;19.90;8.65;;;;;;;8.03;74.18;101853.50;5044660;28;20683;-65
2022/05/04 03:45:41;;;;;;;20.65;8.20;;;;;;;7.98;74.31;101855.09;5045625;28;20097;-65
2022/05/04 03:48:06;;;;;;;21.60;8.25;;;;;;;7.93;75.18;101858.41;5045558;28;20024;-66
2022/05/04 03:50:32;;;;;;;24.65;8.27;;;;;;;7.89;74.89;101857.09;5042863;28;20551;-65
2022/05/04 03:52:57;;;;;;;19.95;8.70;;;;;;;7.88;75.00;101854.53;5045399;28;20118;-66
2022/05/04 03:55:22;;;;;;;21.23;9.05;;;;;;;7.88;74.99;101854.53;5044515;28;20052;-65
2022/05/04 03:57:48;;;;;;;25.77;9.13;;;;;;;7.83;75.34;101854.25;5044379;28;20068;-65
2022/05/04 04:00:13;;;;;;;19.83;8.90;;;;;;;7.83;75.26;101859.72;5044848;28;20106;-65
2022/05/04 04:02:39;;;;;;;20.50;8.32;;;;;;;7.76;75.60;101855.00;5024571;28;20475;-65
2022/05/04 04:05:04;;;;;;;23.83;9.23;;;;;;;7.66;76.29;101853.59;5045133;28;20328;-65
2022/05/04 04:07:30;;;;;;;24.17;8.68;;;;;;;7.57;76.35;101857.44;5044537;28;20062;-65
2022/05/04 04:09:55;;;;;;;26.95;9.40;;;;;;;7.48;76.45;101848.47;5039844;28;20048;-65
2022/05/04 04:12:21;;;;;;;20.98;9.40;;;;;;;7.42;77.14;101850.06;5044893;28;20037;-65
2022/05/04 04:14:46;;;;;;;22.63;9.15;;;;;;;7.38;78.06;101858.81;5044632;28;20025;-65
2022/05/04 04:17:11;;;;;;;24.80;9.23;;;;;;;7.33;78.20;101851.16;5042782;28;20670;-65
2022/05/04 04:19:37;;;;;;;24.63;8.85;;;;;;;7.33;77.79;101850.31;5045234;28;20048;-65
2022/05/04 04:22:02;;;;;;;20.73;8.75;;;;;;;7.31;77.15;101850.50;5044615;28;20052;-65
2022/05/04 04:24:28;;;;;;;20.77;10.02;;;;;;;7.28;77.65;101851.72;5041384;28;20100;-65
2022/05/04 04:26:53;;;;;;;29.60;10.25;;;;;;;7.18;78.26;101855.75;5043678;28;20032;-65
2022/05/04 04:29:18;;;;;;;22.95;9.63;;;;;;;7.13;78.06;101860.91;5044470;28;20404;-66
2022/05/04 04:31:44;;;;;;;18.48;9.07;;;;;;;7.04;78.42;101854.66;5025021;28;20013;-66
2022/05/04 04:34:09;;;;;;;29.05;10.05;;;;;;;7.00;78.00;101859.66;5044013;28;20025;-64
2022/05/04 04:36:34;;;;;;;21.20;9.43;;;;;;;6.99;78.42;101859.81;5042921;28;20091;-66
2022/05/04 04:39:00;;;;;;;25.80;9.50;;;;;;;7.02;78.23;101864.91;5044312;28;20041;-65
2022/05/04 04:41:26;;;;;;;26.63;10.20;;;;;;;7.01;78.26;101866.81;5042642;28;20180;-66
2022/05/04 04:43:51;;;;;;;23.33;8.93;;;;;;;7.03;78.31;101866.59;5044541;28;20083;-65
2022/05/04 04:46:17;;;;;;;22.92;8.98;;;;;;;7.02;78.49;101862.19;5042835;28;20033;-66
2022/05/04 04:48:42;;;;;;;20.90;8.50;;;;;;;7.02;78.38;101865.75;5044133;28;20494;-65
2022/05/04 04:51:07;;;;;;;21.52;8.95;;;;;;;6.99;78.68;101868.00;5041370;28;20021;-66
2022/05/04 04:53:33;;;;;;;20.27;9.07;;;;;;;6.97;79.50;101867.34;5043423;28;20032;-65
2022/05/04 04:55:58;;;;;;;21.63;9.30;;;;;;;6.96;79.65;101860.19;5022326;28;20036;-66
2022/05/04 04:58:25;;;;;;;23.25;9.18;;;;;;;6.90;79.50;101858.19;5043941;28;20048;-65
2022/05/04 05:00:51;;;;;;;21.05;8.80;;;;;;;6.88;79.56;101860.25;5042750;28;20029;-65
2022/05/04 05:03:16;;;;;;;19.90;8.73;;;;;;;6.86;79.94;101860.44;5042151;28;20031;-65
2022/05/04 05:05:42;;;;;;;21.05;8.68;;;;;;;6.89;79.01;101864.66;5036727;28;20067;-65
2022/05/04 05:08:08;;;;;;;25.73;8.93;;;;;;;6.93;78.15;101855.09;5042213;28;20029;-65
2022/05/04 05:10:35;;;;;;;25.33;9.20;;;;;;;6.92;78.02;101861.59;5041609;28;20540;-65
2022/05/04 05:13:00;;;;;;;24.92;8.90;;;;;;;6.96;77.79;101860.19;5043045;28;20041;-65
2022/05/04 05:18:09;;;;;;;24.58;9.07;;;;;;;7.05;78.23;101870.03;5033391;28;20140;-65
2022/05/04 05:20:35;;;;;;;29.00;9.23;;;;;;;7.11;78.17;101863.81;5042081;28;20730;-65
2022/05/04 05:23:02;;;;;;;30.20;9.50;;;;;;;7.13;77.21;101863.63;5043035;28;20060;-65
2022/05/04 05:25:29;;;;;;;27.45;9.32;;;;;;;7.13;77.46;101869.94;5038160;28;20586;-65
2022/05/04 05:27:55;;;;;;;24.05;8.88;;;;;;;7.23;76.97;101869.69;5043153;28;20036;-65
2022/05/04 05:30:20;;;;;;;24.45;9.18;;;;;;;7.27;76.96;101880.09;5040996;28;20025;-66
2022/05/04 05:32:45;;;;;;;27.10;9.50;;;;;;;7.31;77.35;101872.38;5042073;28;20119;-65
2022/05/04 05:35:11;;;;;;;25.70;8.68;;;;;;;7.38;76.68;101861.53;5042261;28;20021;-65
2022/05/04 05:37:36;;;;;;;22.58;9.70;;;;;;;7.44;75.88;101863.53;5038578;28;20033;-65
2022/05/04 05:40:02;;;;;;;24.30;9.20;;;;;;;7.47;77.37;101869.47;5039780;28;20036;-65
2022/05/04 05:42:28;;;;;;;27.10;8.90;;;;;;;7.56;76.83;101867.53;5041402;28;20025;-65
2022/05/04 05:44:54;;;;;;;24.20;10.25;;;;;;;7.60;76.31;101863.38;5042065;28;20036;-65
2022/05/04 05:47:19;;;;;;;22.45;10.48;;;;;;;7.66;74.69;101861.81;5042314;28;20029;-66
2022/05/04 05:49:44;;;;;;;24.38;9.20;;;;;;;7.63;75.29;101860.28;5037642;28;20476;-65
2022/05/04 05:52:10;;;;;;;24.42;8.68;;;;;;;7.67;75.64;101867.06;5042476;28;20024;-65
2022/05/04 05:54:35;;;;;;;19.92;8.70;;;;;;;7.68;75.21;101866.03;5039956;28;20048;-65
2022/05/04 05:57:01;;;;;;;27.85;10.07;;;;;;;7.73;74.65;101874.53;5040418;28;20067;-65
2022/05/04 05:59:26;;;;;;;23.30;9.23;;;;;;;7.76;75.02;101871.44;5039403;28;20075;-65
2022/05/04 06:01:51;;;;;;;24.55;8.75;;;;;;;7.83;74.96;101870.66;5042584;28;20017;-65
2022/05/04 06:04:17;;;;;;;19.70;9.05;;;;;;;7.87;75.09;101874.72;5042753;28;20469;-65
2022/05/04 06:06:42;;;;;;;20.63;9.13;;;;;;;7.95;73.74;101870.00;5040134;28;20359;-65
2022/05/04 06:09:07;;;;;;;26.67;9.20;;;;;;;7.99;74.97;101878.69;5041108;28;20017;-65
2022/05/04 06:11:34;;;;;;;21.42;8.85;;;;;;;8.03;74.35;101877.28;5040603;28;20092;-65
2022/05/04 06:13:59;;;;;;;23.85;8.48;;;;;;;8.12;74.38;101878.88;5042650;28;20472;-65
2022/05/04 06:16:25;;;;;;;26.30;9.25;;;;;;;8.17;74.50;101879.16;5038821;28;20020;-65
2022/05/04 06:18:50;;;;;;;25.00;8.50;;;;;;;8.25;73.39;101883.69;5038518;28;20182;-65
2022/05/04 06:21:16;;;;;;;26.67;8.55;;;;;;;8.36;71.94;101885.06;5039479;28;20029;-65
2022/05/04 06:23:41;;;;;;;24.20;8.93;;;;;;;8.38;71.85;101888.53;5041379;28;20029;-65
2022/05/04 06:26:06;;;;;;;23.98;8.82;;;;;;;8.47;72.42;101881.91;5042280;28;20029;-65
2022/05/04 06:28:32;;;;;;;23.17;8.48;;;;;;;8.50;70.77;101879.63;5042620;28;20104;-65
2022/05/04 06:36:25;;;;;;;27.52;8.80;;;;;;;8.63;71.32;101881.69;5039969;28;20080;-66
2022/05/04 06:38:50;;;;;;;20.52;8.90;;;;;;;8.73;70.88;101876.75;5041897;28;20562;-65
2022/05/04 06:41:15;;;;;;;26.00;8.75;;;;;;;8.86;69.61;101881.50;5041144;28;20029;-65
2022/05/04 06:43:41;;;;;;;24.23;8.30;;;;;;;8.97;68.31;101871.91;5038150;28;20040;-65
2022/05/04 06:46:07;;;;;;;29.80;8.82;;;;;;;9.04;68.74;101872.84;5027759;28;20277;-65
2022/05/04 06:48:32;;;;;;;24.52;9.35;;;;;;;9.54;67.01;101881.94;5041849;28;20021;-65
2022/05/04 06:50:57;;;;;;;20.48;8.43;;;;;;;9.73;66.15;101878.53;5043928;28;20061;-65
2022/05/04 06:53:22;;;;;;;23.17;8.05;;;;;;;9.78;64.34;101883.38;5043440;28;20040;-66
2022/05/04 06:55:48;;;;;;;23.08;8.57;;;;;;;9.59;66.71;101882.19;5043653;28;20074;-65
2022/05/04 06:58:13;;;;;;;22.00;8.77;;;;;;;9.72;66.41;101885.03;5043926;28;20496;-65
2022/05/04 07:00:38;;;;;;;22.08;8.70;;;;;;;9.85;65.18;101879.66;5023224;28;20041;-66
2022/05/04 07:03:03;;;;;;;21.95;8.50;;;;;;;9.79;65.94;101877.72;5041308;28;20025;-66
2022/05/04 07:05:29;;;;;;;21.33;9.02;;;;;;;9.91;66.08;101871.66;5038968;28;20029;-66
2022/05/04 07:07:54;;;;;;;22.95;8.52;;;;;;;9.93;64.74;101877.78;5035753;28;20057;-66
2022/05/04 07:10:19;;;;;;;21.15;9.00;;;;;;;9.91;64.30;101871.66;5042291;28;20037;-66
2022/05/04 07:12:45;;;;;;;27.08;9.80;;;;;;;9.96;65.45;101878.25;5043679;28;20030;-66
2022/05/04 07:15:10;;;;;;;24.83;9.15;;;;;;;10.04;66.00;101877.25;5039777;28;20116;-65
2022/05/04 07:17:36;;;;;;;19.23;8.07;;;;;;;10.21;61.73;101883.25;5041342;28;20025;-65
2022/05/04 07:20:03;;;;;;;23.15;8.10;;;;;;;10.28;62.12;101882.25;5041352;28;20041;-65
2022/05/04 07:22:28;;;;;;;20.65;8.52;;;;;;;10.22;65.76;101880.28;5042291;28;20140;-65
2022/05/04 07:24:53;;;;;;;20.40;9.00;;;;;;;10.29;63.08;101869.34;5042230;28;20112;-66
2022/05/04 07:27:18;;;;;;;17.00;7.43;;;;;;;10.45;63.83;101869.03;5042786;28;20033;-65
2022/05/04 07:29:46;;;;;;;22.25;8.60;;;;;;;10.51;63.26;101870.09;5043333;28;20356;-65
2022/05/04 07:32:12;;;;;;;18.13;8.50;;;;;;;10.62;63.39;101873.09;5042346;28;20430;-65
2022/05/04 07:34:37;;;;;;;22.23;8.55;;;;;;;10.76;60.31;101873.16;5035653;28;20021;-65
2022/05/04 07:37:03;;;;;;;18.15;8.32;;;;;;;10.81;60.59;101873.38;5043938;28;20016;-65
2022/05/04 07:42:22;;;;;;;22.27;9.60;;;;;;;11.02;60.81;101864.97;5040281;28;20125;-66
2022/05/04 07:44:58;;;;;;;21.98;8.25;;;;;;;11.18;60.21;101874.72;5043681;28;20028;-66
2022/05/04 07:47:25;;;;;;;19.13;8.52;;;;;;;11.21;60.34;101874.31;5033452;28;20036;-65
2022/05/04 07:49:50;;;;;;;19.08;8.63;;;;;;;11.20;59.43;101872.59;5049236;28;20036;-66
2022/05/04 07:52:15;;;;;;;21.98;9.57;;;;;;;11.39;59.98;101873.66;5014419;28;20045;-66
2022/05/04 07:54:41;;;;;;;21.17;9.02;;;;;;;11.56;57.58;101879.63;5035305;28;20039;-65
2022/05/04 07:57:08;;;;;;;20.17;9.18;;;;;;;11.42;58.36;101879.59;5046967;28;20036;-66
2022/05/04 07:59:33;;;;;;;22.25;9.27;;;;;;;11.39;58.35;101884.66;5037501;28;20045;-66
2022/05/04 08:04:43;;;;;;;25.23;10.20;;;;;;;11.57;58.49;101886.81;5022502;28;20048;-66
2022/05/04 08:07:08;;;;;;;22.13;9.98;;;;;;;11.57;59.42;101884.06;5041076;28;20032;-66
2022/05/04 08:09:36;;;;;;;18.92;9.55;;;;;;;11.55;57.36;101881.50;5041992;28;20102;-66
2022/05/04 08:12:03;;;;;;;22.98;9.80;;;;;;;11.55;57.76;101886.16;5036864;28;20025;-66
2022/05/04 08:14:28;;;;;;;26.35;10.38;;;;;;;11.58;58.35;101885.75;5034796;28;20024;-66
2022/05/04 08:16:53;;;;;;;22.65;10.13;;;;;;;11.62;59.53;101885.13;5027710;28;20203;-66
2022/05/04 08:19:19;;;;;;;22.20;10.02;;;;;;;11.74;58.31;101881.72;5024736;28;20395;-66
2022/05/04 08:21:44;;;;;;;21.55;10.10;;;;;;;11.84;58.08;101882.16;5029919;28;20028;-66
2022/05/04 08:24:09;;;;;;;22.77;10.30;;;;;;;11.89;57.20;101869.44;5032717;28;20037;-65
2022/05/04 08:26:34;;;;;;;24.08;10.73;;;;;;;11.85;56.94;101872.81;5039468;28;20086;-66
2022/05/04 08:29:01;;;;;;;24.63;10.80;;;;;;;11.95;57.86;101879.59;5032493;28;20025;-66
2022/05/04 08:31:27;;;;;;;23.25;10.52;;;;;;;12.01;56.24;101874.28;5036081;28;20375;-66
2022/05/04 08:33:52;;;;;;;20.70;10.43;;;;;;;12.19;56.82;101874.47;5029455;28;20031;-66
2022/05/04 08:36:18;;;;;;;20.65;10.07;;;;;;;12.30;56.68;101876.53;5023566;28;20032;-66
2022/05/04 08:38:44;;;;;;;26.50;10.32;;;;;;;12.53;56.46;101875.19;5032279;28;20035;-66
2022/05/04 08:41:09;;;;;;;23.65;11.50;;;;;;;12.66;55.08;101872.34;5025552;28;20068;-65
2022/05/04 08:43:35;;;;;;;23.63;11.43;;;;;;;12.87;55.08;101882.22;5028516;28;20017;-66
2022/05/04 08:46:03;;;;;;;30.27;11.10;;;;;;;12.93;53.41;101881.34;5034856;28;20025;-66
2022/05/04 08:48:31;;;;;;;21.50;11.68;;;;;;;13.12;55.33;101879.50;5024330;28;20040;-66
2022/05/04 08:50:59;;;;;;;;;;;;;;;13.37;54.71;101882.34;5036874;28;20043;-66
2022/05/04 08:53:26;;;;;;;24.48;11.25;;;;;;;13.46;52.91;101870.81;5022168;28;19961;-66
2022/05/04 08:55:52;;;;;;;23.30;10.67;;;;;;;13.47;53.53;101878.00;5031164;28;20079;-66
2022/05/04 08:58:17;;;;;;;21.13;10.30;;;;;;;13.49;53.23;101869.53;5033270;28;20041;-66
2022/05/04 09:00:43;;;;;;;21.02;10.68;;;;;;;13.47;51.80;101866.97;5033104;28;20120;-66
2022/05/04 09:03:08;;;;;;;26.38;11.07;;;;;;;13.83;53.76;101876.41;5015067;28;20399;-66
2022/05/04 09:05:40;;;;;;;22.42;10.75;;;;;;;14.07;52.76;101873.84;5034792;28;20360;-66
2022/05/04 09:08:07;;;;;;;23.27;11.23;;;;;;;14.20;52.56;101873.72;5031901;28;20026;-66
2022/05/04 09:10:37;;;;;;;24.33;10.82;;;;;;;14.44;50.27;101871.91;5026859;28;20150;-66
2022/05/04 09:13:03;;;;;;;22.08;10.80;;;;;;;14.93;49.95;101867.28;5027703;28;20049;-66
2022/05/04 09:15:33;;;;;;;22.13;11.35;;;;;;;16.53;45.79;101867.03;5028316;28;20029;-66
2022/05/04 09:18:04;;;;;;;21.48;9.93;;;;;;;18.42;40.79;101864.69;5034894;28;20091;-66
2022/05/04 09:20:45;;;;;;;21.77;10.25;;;;;;;20.04;38.35;101861.00;5023297;28;21028;-66
2022/05/04 09:23:18;;;;;;;18.80;9.38;;;;;;;21.42;34.50;101863.19;5035075;28;20025;-67
2022/05/04 09:25:44;;;;;;;20.33;10.18;;;;;;;22.50;32.65;101850.69;5025094;28;20500;-67
2022/05/04 09:28:14;;;;;;;20.08;10.35;;;;;;;23.68;31.22;101859.22;5025273;28;20056;-67
2022/05/04 09:30:45;;;;;;;20.00;10.60;;;;;;;24.19;30.03;101852.25;5033735;28;20065;-66
2022/05/04 09:33:11;;;;;;;21.13;10.60;;;;;;;25.14;27.50;101854.09;5025998;28;20116;-67
2022/05/04 09:35:37;;;;;;;23.10;10.88;;;;;;;25.45;27.67;101853.63;5037043;28;20031;-67
2022/05/04 09:46:45;;;;;;;22.70;12.80;;;;;;;26.65;26.64;101851.63;5036340;28;20123;-68
2022/05/04 09:49:15;;;;;;;26.67;12.88;;;;;;;26.61;25.52;101852.56;5025811;28;20029;-67
2022/05/04 09:51:48;;;;;;;22.95;12.07;;;;;;;27.03;24.21;101848.53;5026064;28;20105;-68
2022/05/04 09:54:16;;;;;;;29.02;13.35;;;;;;;27.08;25.58;101850.44;5035228;28;20116;-68
2022/05/04 09:56:43;;;;;;;26.83;14.52;;;;;;;26.74;25.07;101860.19;5027772;28;20048;-68
2022/05/04 09:59:09;;;;;;;31.13;14.30;;;;;;;26.94;25.25;101841.97;5029551;28;20068;-68
2022/05/04 10:01:35;;;;;;;26.02;13.32;;;;;;;27.22;25.96;101837.13;5025578;28;20025;-67
2022/05/04 10:04:03;;;;;;;33.38;14.00;;;;;;;27.38;24.54;101840.38;5031499;28;20036;-67
2022/05/04 10:06:30;;;;;;;27.60;13.75;;;;;;;28.07;23.25;101837.16;5039174;28;20171;-67
2022/05/04 10:08:55;;;;;;;30.20;14.20;;;;;;;28.18;24.99;101847.00;5041972;28;20025;-67
2022/05/04 10:11:21;;;;;;;31.33;15.70;;;;;;;28.65;22.52;101842.53;5039107;28;20052;-67
2022/05/04 10:13:47;;;;;;;29.10;14.48;;;;;;;28.58;23.94;101844.16;5040677;28;20048;-67
2022/05/04 10:16:14;;;;;;;35.50;15.50;;;;;;;28.79;23.53;101845.22;5041996;28;20321;-68
2022/05/04 10:18:41;;;;;;;32.00;15.43;;;;;;;28.55;22.24;101842.03;5039028;28;20021;-68
2022/05/04 10:21:15;;;;;;;35.65;15.05;;;;;;;28.56;22.61;101841.69;5041770;28;20025;-68
2022/05/04 10:23:48;;;;;;;76.72;17.70;;;;;;;28.89;22.88;101838.41;5043051;28;20479;-68
2022/05/04 10:26:13;;;;;;;45.38;15.57;;;;;;;29.24;21.60;101838.44;5026273;28;20033;-68
2022/05/04 10:30:30;;;;;;;26.88;14.70;;;;;;;29.63;22.64;101840.25;5045750;28;20047;-67
2022/05/04 10:31:34;;;;;;;31.25;14.43;;;;;;;29.72;20.45;101835.41;5045346;28;20028;-68
2022/05/04 10:34:03;;;;;;;30.35;15.05;;;;;;;29.76;21.59;101836.41;5046486;28;20453;-68
2022/05/04 10:36:30;;;;;;;32.15;15.32;;;;;;;29.26;21.71;101831.31;5043971;28;20021;-68
2022/05/04 10:38:58;;;;;;;25.65;13.63;;;;;;;28.89;21.25;101827.94;5033511;28;20060;-68
2022/05/04 10:41:37;;;;;;;29.55;15.25;;;;;;;29.10;22.65;101828.16;5041006;28;20032;-68
2022/05/04 10:44:03;;;;;;;31.02;15.48;;;;;;;28.28;22.18;101829.75;5026245;28;20029;-68
2022/05/04 10:46:30;;;;;;;26.73;14.15;;;;;;;28.38;21.67;101834.31;5045822;28;20028;-68
2022/05/04 10:48:58;;;;;;;33.35;15.55;;;;;;;28.04;22.09;101823.69;5028132;28;20057;-68
2022/05/04 10:51:28;;;;;;;36.93;16.60;;;;;;;28.31;23.01;101825.44;5044410;28;20078;-68
2022/05/04 10:54:13;;;;;;;35.60;16.88;;;;;;;27.92;24.22;101827.13;5026193;28;20036;-68
2022/05/04 10:56:44;;;;;;;28.17;16.52;;;;;;;26.73;23.38;101819.06;5045769;28;20474;-68
2022/05/04 10:59:10;;;;;;;32.78;17.48;;;;;;;25.85;25.44;101822.00;5044629;28;20096;-68
2022/05/04 11:01:38;;;;;;;38.03;16.45;;;;;;;24.76;28.16;101825.16;5032362;28;20025;-68
2022/05/04 11:04:10;;;;;;;38.38;17.10;;;;;;;23.64;27.45;101815.22;5043759;28;20065;-68
2022/05/04 11:06:42;;;;;;;29.73;15.90;;;;;;;23.04;30.84;101809.81;5045008;28;20082;-68
2022/05/04 11:09:11;;;;;;;35.70;17.65;;;;;;;22.28;32.68;101819.44;5044833;28;20483;-68
2022/05/04 11:11:45;;;;;;;37.15;16.85;;;;;;;21.70;32.99;101817.06;5025108;28;20033;-68
2022/05/04 11:14:12;;;;;;;33.90;17.08;;;;;;;21.37;34.52;101818.47;5045151;28;20111;-68
2022/05/04 11:16:40;;;;;;;31.60;16.48;;;;;;;20.84;32.50;101826.22;5045851;28;20021;-68
2022/05/04 11:19:06;;;;;;;33.80;16.98;;;;;;;20.81;34.98;101817.53;5044306;28;20072;-68
2022/05/04 11:21:33;;;;;;;34.38;16.85;;;;;;;20.44;34.19;101816.56;5043769;28;20087;-68
2022/05/04 11:24:01;;;;;;;40.10;18.33;;;;;;;20.50;35.38;101813.84;5044601;28;20750;-68
2022/05/04 11:26:37;;;;;;;37.47;17.77;;;;;;;20.34;34.36;101816.53;5036130;28;20061;-67
2022/05/04 11:29:10;;;;;;;33.15;16.90;;;;;;;20.21;34.81;101815.06;5028757;28;20103;-68
2022/05/04 11:31:36;;;;;;;32.15;17.17;;;;;;;20.18;35.82;101806.44;5042681;28;20039;-67
2022/05/04 11:34:02;;;;;;;42.30;16.70;;;;;;;20.26;36.80;101811.47;5042596;28;20045;-67
2022/05/04 11:36:27;;;;;;;32.92;16.92;;;;;;;20.48;35.70;101808.53;5042965;28;20068;-68
2022/05/04 11:38:53;;;;;;;38.08;15.57;;;;;;;20.64;36.29;101801.03;5044280;28;20025;-68
2022/05/04 11:41:20;;;;;;;28.52;13.00;;;;;;;20.64;33.47;101804.69;5032503;28;20048;-67
2022/05/04 11:43:47;;;;;;;24.67;13.43;;;;;;;20.41;31.04;101797.56;5044021;28;20086;-67
2022/05/04 11:46:12;;;;;;;31.25;15.23;;;;;;;20.34;34.95;101801.75;5043665;28;20020;-67